createdAt,value
2018-05-02T00:00:32.838Z,98743.42
2018-05-02T00:03:01.123Z,98749.17
2018-05-02T00:05:29.398Z,98764.28
2018-05-02T00:07:58.264Z,98761.55
2018-05-02T00:10:26.514Z,98763.95
2018-05-02T00:12:55.010Z,98758.50
2018-05-02T00:15:23.266Z,98758.39
2018-05-02T00:17:51.598Z,98759.09
2018-05-02T00:20:20.657Z,98751.95
2018-05-02T00:22:48.937Z,98750.45
2018-05-02T00:25:17.287Z,98742.91
2018-05-02T00:27:45.587Z,98741.16
2018-05-02T00:30:13.840Z,98744.95
2018-05-02T00:32:42.226Z,98740.73
2018-05-02T00:35:10.913Z,98736.09
2018-05-02T00:37:39.184Z,98734.72
2018-05-02T00:40:07.463Z,98733.15
2018-05-02T00:42:35.716Z,98732.48
2018-05-02T00:45:03.993Z,98728.95
2018-05-02T00:47:32.297Z,98726.44
2018-05-02T00:50:01.433Z,98716.70
2018-05-02T00:52:29.700Z,98722.28
2018-05-02T00:54:57.973Z,98721.30
2018-05-02T00:57:26.287Z,98724.98
2018-05-02T00:59:55.529Z,98725.78
2018-05-02T01:02:24.461Z,98714.80
2018-05-02T01:04:52.694Z,98714.80
2018-05-02T01:07:20.971Z,98709.70
2018-05-02T01:09:49.757Z,98712.86
2018-05-02T01:12:18.065Z,98711.91
2018-05-02T01:14:46.337Z,98704.19
2018-05-02T01:17:14.594Z,98715.66
2018-05-02T01:19:42.875Z,98715.67
2018-05-02T01:22:12.029Z,98711.05
2018-05-02T01:24:40.858Z,98708.19
2018-05-02T01:27:09.130Z,98708.86
2018-05-02T01:29:37.414Z,98708.14
2018-05-02T01:32:06.519Z,98712.03
2018-05-02T01:34:34.794Z,98714.53
2018-05-02T01:37:03.074Z,98715.63
2018-05-02T01:39:31.367Z,98708.95
2018-05-02T01:41:59.628Z,98704.48
2018-05-02T01:44:27.903Z,98704.84
2018-05-02T01:46:56.182Z,98705.32
2018-05-02T01:49:25.422Z,98699.66
2018-05-02T01:51:53.703Z,98697.77
2018-05-02T01:54:22.002Z,98694.77
2018-05-02T01:56:51.130Z,98702.38
2018-05-02T01:59:19.406Z,98699.96
2018-05-02T02:01:47.699Z,98706.01
2018-05-02T02:04:15.984Z,98711.75
2018-05-02T02:06:44.338Z,98711.52
2018-05-02T02:09:12.597Z,98714.37
2018-05-02T02:11:40.891Z,98721.69
2018-05-02T02:14:09.166Z,98721.63
2018-05-02T02:16:37.512Z,98731.27
2018-05-02T02:19:05.748Z,98729.47
2018-05-02T02:21:34.020Z,98729.22
2018-05-02T02:24:02.314Z,98723.09
2018-05-02T02:26:30.590Z,98715.38
2018-05-02T02:28:58.838Z,98709.10
2018-05-02T02:31:27.108Z,98718.58
2018-05-02T02:33:55.677Z,98718.63
2018-05-02T02:36:23.867Z,98726.23
2018-05-02T02:38:52.143Z,98726.05
2018-05-02T02:41:20.430Z,98722.90
2018-05-02T02:43:48.747Z,98722.97
2018-05-02T02:46:16.999Z,98721.33
2018-05-02T02:48:45.726Z,98722.28
2018-05-02T02:51:14.016Z,98684.24
2018-05-02T02:53:42.281Z,98714.62
2018-05-02T02:56:11.382Z,98715.31
2018-05-02T02:58:39.650Z,98710.45
2018-05-02T03:01:08.896Z,98712.04
2018-05-02T03:03:37.165Z,98715.47
2018-05-02T03:06:06.480Z,98712.30
2018-05-02T03:08:34.802Z,98662.00
2018-05-02T03:11:03.118Z,98699.14
2018-05-02T03:13:31.474Z,98702.27
2018-05-02T03:15:59.775Z,98706.84
2018-05-02T03:18:28.046Z,98698.65
2018-05-02T03:20:56.433Z,98702.11
2018-05-02T03:23:24.718Z,98694.96
2018-05-02T03:25:53.073Z,98703.69
2018-05-02T03:28:21.447Z,98696.91
2018-05-02T03:30:49.692Z,98704.37
2018-05-02T03:33:18.018Z,98700.95
2018-05-02T03:35:47.401Z,98695.63
2018-05-02T03:38:15.693Z,98699.73
2018-05-02T03:40:43.990Z,98698.45
2018-05-02T03:43:12.266Z,98689.37
2018-05-02T03:45:40.533Z,98688.81
2018-05-02T03:48:08.811Z,98694.31
2018-05-02T03:50:37.062Z,98690.09
2018-05-02T03:53:05.432Z,98689.31
2018-05-02T03:55:33.633Z,98691.18
2018-05-02T03:58:01.977Z,98687.86
2018-05-02T04:00:42.103Z,98691.73
2018-05-02T04:03:21.920Z,98695.46
2018-05-02T04:06:01.978Z,98691.34
2018-05-02T04:08:30.987Z,98691.52
2018-05-02T04:10:59.282Z,98688.67
2018-05-02T04:13:27.621Z,98696.48
2018-05-02T04:15:55.895Z,98692.85
2018-05-02T04:18:24.210Z,98696.56
2018-05-02T04:20:52.574Z,98699.59
2018-05-02T04:23:21.469Z,98699.25
2018-05-02T04:25:49.768Z,98702.07
2018-05-02T04:28:18.062Z,98693.15
2018-05-02T04:30:46.379Z,98696.38
2018-05-02T04:33:14.671Z,98701.97
2018-05-02T04:35:42.935Z,98703.56
2018-05-02T04:38:11.209Z,98710.69
2018-05-02T04:40:39.507Z,98712.21
2018-05-02T04:43:08.506Z,98708.84
2018-05-02T04:45:36.852Z,98708.61
2018-05-02T04:48:05.112Z,98710.83
2018-05-02T04:50:33.416Z,98708.52
2018-05-02T04:53:01.692Z,98710.03
2018-05-02T04:55:30.010Z,98709.79
2018-05-02T04:57:58.261Z,98720.92
2018-05-02T05:00:26.543Z,98722.14
2018-05-02T05:02:54.834Z,98719.50
2018-05-02T05:05:23.107Z,98721.02
2018-05-02T05:07:51.385Z,98722.29
2018-05-02T05:10:19.676Z,98720.78
2018-05-02T05:12:47.953Z,98716.14
2018-05-02T05:15:16.580Z,98723.14
2018-05-02T05:17:44.881Z,98717.25
2018-05-02T05:20:13.168Z,98721.71
2018-05-02T05:22:41.514Z,98715.55
2018-05-02T05:25:09.977Z,98726.73
2018-05-02T05:27:38.584Z,98719.20
2018-05-02T05:30:06.878Z,98719.91
2018-05-02T05:32:35.975Z,98725.20
2018-05-02T05:35:04.269Z,98725.08
2018-05-02T05:37:32.571Z,98722.19
2018-05-02T05:40:01.453Z,98718.53
2018-05-02T05:42:30.459Z,98716.35
2018-05-02T05:44:58.719Z,98702.12
2018-05-02T05:47:26.977Z,98716.41
2018-05-02T05:49:55.274Z,98712.72
2018-05-02T05:52:23.520Z,98716.48
2018-05-02T05:54:51.889Z,98724.14
2018-05-02T05:57:20.134Z,98725.88
2018-05-02T05:59:48.972Z,98721.72
2018-05-02T06:02:17.230Z,98722.55
2018-05-02T06:04:45.534Z,98714.66
2018-05-02T06:07:13.811Z,98724.52
2018-05-02T06:09:42.998Z,98728.27
2018-05-02T06:12:11.270Z,98719.84
2018-05-02T06:14:39.555Z,98721.30
2018-05-02T06:17:07.818Z,98726.41
2018-05-02T06:19:36.104Z,98734.62
2018-05-02T06:22:04.367Z,98732.53
2018-05-02T06:24:32.678Z,98740.07
2018-05-02T06:27:01.067Z,98740.95
2018-05-02T06:29:29.342Z,98740.48
2018-05-02T06:31:57.722Z,98747.61
2018-05-02T06:34:26.010Z,98743.31
2018-05-02T06:36:54.339Z,98724.47
2018-05-02T06:39:22.641Z,98738.02
2018-05-02T06:41:51.028Z,98739.55
2018-05-02T06:44:19.277Z,98734.37
2018-05-02T06:46:47.582Z,98732.20
2018-05-02T06:49:16.366Z,98724.62
2018-05-02T06:51:45.501Z,98733.61
2018-05-02T06:54:13.778Z,98727.17
2018-05-02T06:56:50.893Z,98657.25
2018-05-02T06:59:35.126Z,98724.62
2018-05-02T07:02:06.245Z,98721.91
2018-05-02T07:04:34.503Z,98722.28
2018-05-02T07:07:02.818Z,98708.79
2018-05-02T07:09:31.133Z,98709.25
2018-05-02T07:11:59.450Z,98709.51
2018-05-02T07:14:27.716Z,98709.69
2018-05-02T07:16:56.001Z,98701.66
2018-05-02T07:19:24.259Z,98697.45
2018-05-02T07:21:52.636Z,98688.22
2018-05-02T07:24:21.015Z,98691.52
2018-05-02T07:26:49.349Z,98693.52
2018-05-02T07:29:17.875Z,98689.95
2018-05-02T07:31:46.231Z,98680.98
2018-05-02T07:34:15.662Z,98688.52
2018-05-02T07:36:43.938Z,98691.40
2018-05-02T07:39:12.865Z,98686.92
2018-05-02T07:41:41.132Z,98686.41
2018-05-02T07:44:09.930Z,98677.81
2018-05-02T07:46:38.258Z,98660.52
2018-05-02T07:49:06.571Z,98676.88
2018-05-02T07:51:34.867Z,98672.24
2018-05-02T07:54:03.239Z,98667.36
2018-05-02T07:56:31.631Z,98668.53
2018-05-02T07:59:00.050Z,98664.84
2018-05-02T08:01:28.380Z,98669.17
2018-05-02T08:03:56.755Z,98668.25
2018-05-02T08:06:25.154Z,98672.97
2018-05-02T08:08:53.481Z,98672.29
2018-05-02T08:11:21.816Z,98669.89
2018-05-02T08:13:50.140Z,98660.52
2018-05-02T08:16:19.511Z,98664.19
2018-05-02T08:18:48.385Z,98656.51
2018-05-02T08:21:16.816Z,98653.42
2018-05-02T08:23:45.222Z,98654.20
2018-05-02T08:26:13.575Z,98653.73
2018-05-02T08:28:41.957Z,98646.94
2018-05-02T08:31:10.302Z,98648.59
2018-05-02T08:33:39.018Z,98643.65
2018-05-02T08:36:07.443Z,98628.84
2018-05-02T08:38:35.734Z,98637.33
2018-05-02T08:41:04.036Z,98634.59
2018-05-02T08:43:32.345Z,98638.64
2018-05-02T08:46:00.727Z,98635.97
2018-05-02T08:48:29.058Z,98635.23
2018-05-02T08:50:57.373Z,98632.72
2018-05-02T08:53:25.719Z,98631.32
2018-05-02T08:55:54.037Z,98631.38
2018-05-02T08:58:22.387Z,98632.29
2018-05-02T09:00:50.757Z,98620.92
2018-05-02T09:03:19.078Z,98613.11
2018-05-02T09:05:47.411Z,98620.25
2018-05-02T09:08:15.897Z,98618.62
2018-05-02T09:10:44.375Z,98617.86
2018-05-02T09:13:12.747Z,98612.13
2018-05-02T09:15:41.103Z,98613.30
2018-05-02T09:18:09.376Z,98618.11
2018-05-02T09:20:37.688Z,98604.58
2018-05-02T09:23:06.595Z,98605.03
2018-05-02T09:25:34.916Z,98602.61
2018-05-02T09:28:03.204Z,98598.58
2018-05-02T09:30:31.584Z,98599.66
2018-05-02T09:32:59.974Z,98593.05
2018-05-02T09:35:28.377Z,98590.20
2018-05-02T09:37:57.023Z,98589.30
2018-05-02T09:40:25.443Z,98584.44
2018-05-02T09:42:53.954Z,98582.60
2018-05-02T09:45:22.203Z,98573.89
2018-05-02T09:47:50.495Z,98566.73
2018-05-02T09:50:18.795Z,98571.33
2018-05-02T09:52:47.222Z,98569.55
2018-05-02T09:55:15.529Z,98566.68
2018-05-02T09:57:43.837Z,98565.89
2018-05-02T10:00:12.579Z,98575.86
2018-05-02T10:02:40.908Z,98567.69
2018-05-02T10:05:09.143Z,98567.37
2018-05-02T10:07:37.420Z,98560.57
2018-05-02T10:10:05.736Z,98562.95
2018-05-02T10:12:34.001Z,98566.02
2018-05-02T10:15:02.397Z,98563.27
2018-05-02T10:17:30.789Z,98559.02
2018-05-02T10:19:59.083Z,98562.25
2018-05-02T10:22:27.445Z,98555.17
2018-05-02T10:24:55.985Z,98551.61
2018-05-02T10:27:24.254Z,98553.75
2018-05-02T10:29:52.581Z,98553.49
2018-05-02T10:32:20.835Z,98554.30
2018-05-02T10:34:49.232Z,98549.41
2018-05-02T10:37:18.031Z,98544.13
2018-05-02T10:39:46.394Z,98540.06
2018-05-02T10:42:14.654Z,98538.41
2018-05-02T10:44:43.076Z,98537.66
2018-05-02T10:47:11.577Z,98537.34
2018-05-02T10:49:39.923Z,98535.08
2018-05-02T10:52:08.265Z,98531.05
2018-05-02T10:54:37.591Z,98534.34
2018-05-02T10:57:05.896Z,98537.02
2018-05-02T10:59:35.575Z,98531.06
2018-05-02T11:02:03.926Z,98528.25
2018-05-02T11:04:32.316Z,98537.52
2018-05-02T11:07:00.682Z,98532.78
2018-05-02T11:09:28.981Z,98515.84
2018-05-02T11:11:58.361Z,98529.57
2018-05-02T11:14:27.741Z,98525.58
2018-05-02T11:16:56.045Z,98531.98
2018-05-02T11:19:24.578Z,98523.91
2018-05-02T11:21:53.672Z,98518.12
2018-05-02T11:24:22.552Z,98518.73
2018-05-02T11:26:50.871Z,98512.92
2018-05-02T11:29:19.159Z,98510.55
2018-05-02T11:31:47.463Z,98513.90
2018-05-02T11:34:15.742Z,98496.87
2018-05-02T11:36:44.046Z,98502.54
2018-05-02T11:39:12.324Z,98499.22
2018-05-02T11:41:40.613Z,98499.27
2018-05-02T11:44:09.265Z,98496.36
2018-05-02T11:46:37.607Z,98490.41
2018-05-02T11:49:06.468Z,98482.79
2018-05-02T11:51:34.744Z,98487.47
2018-05-02T11:54:03.258Z,98488.66
2018-05-02T11:56:31.565Z,98476.82
2018-05-02T11:58:59.863Z,98470.83
2018-05-02T12:01:28.138Z,98473.09
2018-05-02T12:03:56.434Z,98465.75
2018-05-02T12:06:24.734Z,98467.07
2018-05-02T12:08:53.099Z,98467.61
2018-05-02T12:11:21.786Z,98463.71
2018-05-02T12:13:50.112Z,98458.31
2018-05-02T12:16:18.403Z,98466.05
2018-05-02T12:18:46.686Z,98462.52
2018-05-02T12:21:14.955Z,98455.76
2018-05-02T12:23:43.288Z,98452.45
2018-05-02T12:26:11.569Z,98454.10
2018-05-02T12:28:39.872Z,98448.86
2018-05-02T12:31:08.176Z,98449.75
2018-05-02T12:33:36.471Z,98446.53
2018-05-02T12:36:04.728Z,98442.84
2018-05-02T12:38:34.129Z,98447.95
2018-05-02T12:41:02.796Z,98450.55
2018-05-02T12:43:31.211Z,98443.30
2018-05-02T12:45:59.530Z,98439.84
2018-05-02T12:48:27.826Z,98435.80
2018-05-02T12:50:56.166Z,98438.08
2018-05-02T12:53:24.395Z,98435.62
2018-05-02T12:55:52.714Z,98434.05
2018-05-02T12:58:21.018Z,98431.84
2018-05-02T13:00:49.429Z,98429.55
2018-05-02T13:03:17.677Z,98425.91
2018-05-02T13:05:45.962Z,98423.96
2018-05-02T13:08:14.279Z,98430.52
2018-05-02T13:10:42.571Z,98422.64
2018-05-02T13:13:11.605Z,98419.53
2018-05-02T13:15:39.913Z,98418.63
2018-05-02T13:18:08.184Z,98418.55
2018-05-02T13:20:36.473Z,98418.91
2018-05-02T13:23:04.737Z,98410.53
2018-05-02T13:25:33.141Z,98416.34
2018-05-02T13:28:01.474Z,98417.20
2018-05-02T13:30:29.846Z,98418.03
2018-05-02T13:32:58.233Z,98417.84
2018-05-02T13:35:26.550Z,98405.45
2018-05-02T13:37:54.929Z,98391.00
2018-05-02T13:40:23.251Z,98398.45
2018-05-02T13:42:51.570Z,98392.87
2018-05-02T13:45:19.918Z,98391.47
2018-05-02T13:47:48.228Z,98392.63
2018-05-02T13:50:16.572Z,98382.98
2018-05-02T13:52:46.857Z,98389.00
2018-05-02T13:55:15.199Z,98387.06
2018-05-02T13:57:44.370Z,98383.35
2018-05-02T14:00:12.671Z,98377.53
2018-05-02T14:02:41.062Z,98381.72
2018-05-02T14:05:09.329Z,98379.22
2018-05-02T14:07:37.808Z,98376.69
2018-05-02T14:10:06.094Z,98374.91
2018-05-02T14:12:34.478Z,98378.17
2018-05-02T14:15:02.798Z,98377.31
2018-05-02T14:17:31.136Z,98373.41
2018-05-02T14:19:59.477Z,98377.79
2018-05-02T14:22:27.822Z,98367.58
2018-05-02T14:24:56.268Z,98355.26
2018-05-02T14:27:24.571Z,98370.35
2018-05-02T14:29:52.998Z,98371.64
2018-05-02T14:32:21.273Z,98360.25
2018-05-02T14:34:49.581Z,98366.11
2018-05-02T14:37:17.896Z,98365.75
2018-05-02T14:39:46.203Z,98365.89
2018-05-02T14:42:16.837Z,98373.50
2018-05-02T14:44:49.788Z,98372.89
2018-05-02T14:47:25.188Z,98366.06
2018-05-02T14:49:54.062Z,98365.72
2018-05-02T14:52:22.333Z,98363.88
2018-05-02T14:54:50.900Z,98364.53
2018-05-02T14:57:19.235Z,98360.70
2018-05-02T14:59:47.728Z,98368.75
2018-05-02T15:02:16.854Z,98363.86
2018-05-02T15:04:45.159Z,98368.77
2018-05-02T15:07:18.220Z,98373.79
2018-05-02T15:09:47.034Z,98405.11
2018-05-02T15:12:15.319Z,98368.67
2018-05-02T15:14:43.610Z,98368.91
2018-05-02T15:17:11.894Z,98374.08
2018-05-02T15:19:40.217Z,98369.73
2018-05-02T15:22:08.996Z,98373.05
2018-05-02T15:24:37.344Z,98363.83
2018-05-02T15:27:05.622Z,98374.12
2018-05-02T15:29:34.010Z,98377.32
2018-05-02T15:32:03.150Z,98375.88
2018-05-02T15:34:31.445Z,98371.86
2018-05-02T15:37:00.011Z,98373.98
2018-05-02T15:39:28.540Z,98373.75
2018-05-02T15:41:56.818Z,98372.14
2018-05-02T15:44:25.098Z,98374.53
2018-05-02T15:46:53.483Z,98374.61
2018-05-02T15:49:21.869Z,98368.50
2018-05-02T15:51:50.162Z,98368.02
2018-05-02T15:54:18.433Z,98363.97
2018-05-02T15:56:46.742Z,98369.20
2018-05-02T15:59:15.003Z,98368.13
2018-05-02T16:01:43.353Z,98370.09
2018-05-02T16:04:11.720Z,98367.31
2018-05-02T16:06:40.038Z,98373.67
2018-05-02T16:09:09.002Z,98367.42
2018-05-02T16:11:37.317Z,98368.64
2018-05-02T16:14:05.603Z,98371.80
2018-05-02T16:16:33.961Z,98369.75
2018-05-02T16:19:02.545Z,98373.38
2018-05-02T16:21:30.822Z,98372.99
2018-05-02T16:23:59.292Z,98374.22
2018-05-02T16:26:27.585Z,98381.42
2018-05-02T16:28:55.873Z,98380.98
2018-05-02T16:31:24.197Z,98380.70
2018-05-02T16:33:52.458Z,98382.95
2018-05-02T16:36:20.781Z,98383.41
2018-05-02T16:38:49.046Z,98377.70
2018-05-02T16:41:17.373Z,98380.33
2018-05-02T16:43:45.664Z,98383.38
2018-05-02T16:46:13.984Z,98386.39
2018-05-02T16:48:42.356Z,98382.19
2018-05-02T16:51:10.582Z,98380.28
2018-05-02T16:53:38.930Z,98374.06
2018-05-02T16:56:07.226Z,98376.13
2018-05-02T16:58:35.533Z,98380.70
2018-05-02T17:01:03.806Z,98374.29
2018-05-02T17:03:32.154Z,98373.58
2018-05-02T17:06:00.896Z,98377.87
2018-05-02T17:08:29.285Z,98381.75
2018-05-02T17:10:57.620Z,98382.66
2018-05-02T17:13:25.898Z,98388.64
2018-05-02T17:15:54.178Z,98391.20
2018-05-02T17:18:22.478Z,98391.52
2018-05-02T17:20:50.778Z,98393.03
2018-05-02T17:23:19.169Z,98384.84
2018-05-02T17:25:47.596Z,98385.77
2018-05-02T17:28:15.878Z,98389.70
2018-05-02T17:30:44.191Z,98389.86
2018-05-02T17:33:12.497Z,98390.59
2018-05-02T17:35:41.743Z,98392.17
2018-05-02T17:38:10.031Z,98390.67
2018-05-02T17:40:38.407Z,98397.02
2018-05-02T17:43:06.998Z,98391.91
2018-05-02T17:45:35.303Z,98396.73
2018-05-02T17:48:04.919Z,98396.73
2018-05-02T17:50:33.266Z,98403.95
2018-05-02T17:53:02.706Z,98407.08
2018-05-02T17:55:30.964Z,98408.61
2018-05-02T17:58:00.316Z,98410.70
2018-05-02T18:00:28.630Z,98409.09
2018-05-02T18:02:56.923Z,98410.63
2018-05-02T18:05:25.211Z,98411.41
2018-05-02T18:07:53.493Z,98410.60
2018-05-02T18:10:21.833Z,98411.01
2018-05-02T18:12:50.061Z,98416.41
2018-05-02T18:15:18.974Z,98418.63
2018-05-02T18:17:47.209Z,98416.22
2018-05-02T18:20:15.493Z,98425.96
2018-05-02T18:22:43.821Z,98429.97
2018-05-02T18:25:12.155Z,98430.17
2018-05-02T18:27:40.525Z,98430.65
2018-05-02T18:30:08.867Z,98424.71
2018-05-02T18:32:38.251Z,98432.00
2018-05-02T18:35:06.528Z,98436.47
2018-05-02T18:37:34.856Z,98439.69
2018-05-02T18:40:03.095Z,98439.79
2018-05-02T18:42:31.425Z,98439.14
2018-05-02T18:44:59.744Z,98440.59
2018-05-02T18:47:28.810Z,98441.02
2018-05-02T18:49:57.150Z,98437.31
2018-05-02T18:52:25.424Z,98438.97
2018-05-02T18:54:53.723Z,98437.64
2018-05-02T18:57:22.015Z,98438.72
2018-05-02T18:59:50.326Z,98448.69
2018-05-02T19:02:19.213Z,98446.70
2018-05-02T19:04:47.540Z,98445.82
2018-05-02T19:07:15.858Z,98448.10
2018-05-02T19:09:44.154Z,98448.03
2018-05-02T19:12:12.488Z,98450.36
2018-05-02T19:14:40.755Z,98454.18
2018-05-02T19:17:09.040Z,98455.50
2018-05-02T19:19:42.927Z,98453.16
2018-05-02T19:22:11.168Z,98454.33
2018-05-02T19:24:45.083Z,98457.53
2018-05-02T19:27:13.342Z,98459.42
2018-05-02T19:29:41.716Z,98460.11
2018-05-02T19:32:15.528Z,98459.56
2018-05-02T19:34:43.826Z,98458.75
2018-05-02T19:37:12.098Z,98468.44
2018-05-02T19:39:45.883Z,98470.73
2018-05-02T19:42:19.898Z,98480.38
2018-05-02T19:44:48.225Z,98479.83
2018-05-02T19:47:16.580Z,98489.44
2018-05-02T19:49:44.912Z,98485.77
2018-05-02T19:52:18.788Z,98487.42
2018-05-02T19:54:47.035Z,98486.95
2018-05-02T19:57:15.326Z,98491.72
2018-05-02T19:59:43.602Z,98490.39
2018-05-02T20:02:18.072Z,98492.97
2018-05-02T20:04:46.420Z,98496.62
2018-05-02T20:07:21.092Z,98490.93
2018-05-02T20:09:54.924Z,98484.67
2018-05-02T20:12:30.358Z,98479.95
2018-05-02T20:14:58.646Z,98476.61
2018-05-02T20:17:26.998Z,98476.89
2018-05-02T20:19:58.252Z,98469.81
2018-05-02T20:22:26.555Z,98480.69
2018-05-02T20:24:54.882Z,98471.45
2018-05-02T20:27:23.413Z,98474.16
2018-05-02T20:29:51.686Z,98468.59
2018-05-02T20:32:20.370Z,98473.39
2018-05-02T20:34:48.638Z,98477.59
2018-05-02T20:37:16.986Z,98470.53
2018-05-02T20:39:45.291Z,98464.79
2018-05-02T20:42:13.584Z,98463.83
2018-05-02T20:44:44.273Z,98473.73
2018-05-02T20:47:13.653Z,98472.52
2018-05-02T20:49:43.852Z,98473.16
2018-05-02T20:52:12.251Z,98479.80
2018-05-02T20:54:40.686Z,98485.84
2018-05-02T20:57:09.041Z,98478.64
2018-05-02T20:59:37.482Z,98483.84
2018-05-02T21:02:05.742Z,98479.25
2018-05-02T21:04:34.067Z,98484.91
2018-05-02T21:07:02.462Z,98483.80
2018-05-02T21:09:30.770Z,98485.13
2018-05-02T21:12:00.091Z,98482.94
2018-05-02T21:14:28.807Z,98489.59
2018-05-02T21:16:59.795Z,98490.72
2018-05-02T21:19:29.295Z,98483.95
2018-05-02T21:21:57.598Z,98489.16
2018-05-02T21:24:25.958Z,98486.22
2018-05-02T21:26:54.236Z,98485.63
2018-05-02T21:29:22.560Z,98482.94
2018-05-02T21:31:50.965Z,98480.67
2018-05-02T21:34:19.290Z,98483.81
2018-05-02T21:36:47.599Z,98486.47
2018-05-02T21:39:15.920Z,98485.53
2018-05-02T21:41:44.198Z,98487.61
2018-05-02T21:44:12.495Z,98485.45
2018-05-02T21:46:41.400Z,98486.44
2018-05-02T21:49:09.680Z,98487.05
2018-05-02T21:51:38.016Z,98491.43
2018-05-02T21:54:06.314Z,98493.55
2018-05-02T21:56:35.097Z,98487.49
2018-05-02T21:59:03.361Z,98493.60
2018-05-02T22:01:31.666Z,98494.03
2018-05-02T22:03:59.923Z,98500.44
2018-05-02T22:06:28.228Z,98509.09
2018-05-02T22:08:56.694Z,98504.55
2018-05-02T22:11:24.983Z,98487.66
2018-05-02T22:13:53.235Z,98497.24
2018-05-02T22:16:21.521Z,98505.94
2018-05-02T22:18:49.818Z,98493.09
2018-05-02T22:21:18.081Z,98519.37
2018-05-02T22:23:46.674Z,98511.05
2018-05-02T22:26:14.943Z,98522.05
2018-05-02T22:28:43.218Z,98516.66
2018-05-02T22:31:11.475Z,98527.58
2018-05-02T22:33:39.779Z,98528.42
2018-05-02T22:36:08.043Z,98529.52
2018-05-02T22:38:36.309Z,98527.50
2018-05-02T22:41:04.584Z,98524.11
2018-05-02T22:43:32.970Z,98527.93
2018-05-02T22:46:01.239Z,98523.76
2018-05-02T22:48:29.514Z,98522.86
2018-05-02T22:51:12.531Z,98523.91
2018-05-02T22:53:40.900Z,98520.56
2018-05-02T22:56:09.159Z,98521.79
2018-05-02T22:58:37.471Z,98522.69
2018-05-02T23:01:05.792Z,98530.02
2018-05-02T23:03:34.034Z,98524.19
2018-05-02T23:06:02.327Z,98528.09
2018-05-02T23:08:30.607Z,98524.22
2018-05-02T23:10:58.885Z,98525.51
2018-05-02T23:13:27.179Z,98524.44
2018-05-02T23:15:55.433Z,98522.70
2018-05-02T23:18:23.747Z,98521.58
2018-05-02T23:20:52.134Z,98520.88
2018-05-02T23:23:20.397Z,98522.17
2018-05-02T23:25:48.689Z,98521.70
2018-05-02T23:28:16.981Z,98529.63
2018-05-02T23:30:45.286Z,98525.39
2018-05-02T23:33:13.538Z,98507.63
2018-05-02T23:35:41.829Z,98519.47
2018-05-02T23:38:10.102Z,98522.42
2018-05-02T23:40:38.962Z,98524.46
2018-05-02T23:43:08.659Z,98528.81
2018-05-02T23:45:36.952Z,98526.23
2018-05-02T23:48:05.226Z,98523.89
2018-05-02T23:50:33.746Z,98521.27
2018-05-02T23:53:02.008Z,98518.61
2018-05-02T23:55:30.303Z,98520.25
2018-05-02T23:57:58.557Z,98519.48
